createdAt,value
2022-10-30T00:01:28.594Z,6.07
2022-10-30T00:03:56.677Z,6.90
2022-10-30T00:06:24.687Z,6.03
2022-10-30T00:08:52.757Z,5.63
2022-10-30T00:11:20.830Z,5.53
2022-10-30T00:13:49.091Z,6.17
2022-10-30T00:16:17.187Z,6.00
2022-10-30T00:18:46.601Z,6.80
2022-10-30T00:21:16.430Z,6.20
2022-10-30T00:23:47.866Z,6.47
2022-10-30T00:26:16.572Z,6.60
2022-10-30T00:28:44.840Z,5.27
2022-10-30T00:31:12.873Z,7.00
2022-10-30T00:33:40.954Z,6.53
2022-10-30T00:36:10.582Z,6.60
2022-10-30T00:38:38.677Z,7.23
2022-10-30T00:41:06.850Z,6.17
2022-10-30T00:43:37.538Z,6.83
2022-10-30T00:46:15.077Z,7.43
2022-10-30T00:48:45.673Z,6.00
2022-10-30T00:51:16.066Z,6.17
2022-10-30T00:53:45.000Z,5.87
2022-10-30T00:56:14.128Z,5.90
2022-10-30T00:58:47.767Z,7.00
2022-10-30T01:01:19.699Z,6.80
2022-10-30T01:03:50.439Z,5.80
2022-10-30T01:06:20.326Z,6.50
2022-10-30T01:08:49.497Z,7.53
2022-10-30T01:11:18.717Z,6.80
2022-10-30T01:13:50.811Z,6.87
2022-10-30T01:16:53.066Z,6.20
2022-10-30T01:19:27.618Z,7.20
2022-10-30T01:22:13.082Z,7.00
2022-10-30T01:28:36.955Z,7.23
2022-10-30T01:31:17.857Z,7.03
2022-10-30T01:34:00.377Z,7.20
2022-10-30T01:36:34.717Z,6.47
2022-10-30T01:39:08.582Z,7.07
2022-10-30T01:41:36.591Z,7.23
2022-10-30T01:44:09.130Z,6.37
2022-10-30T01:46:54.209Z,6.23
2022-10-30T01:49:38.153Z,7.13
2022-10-30T01:52:14.375Z,6.20
2022-10-30T01:54:53.296Z,7.60
2022-10-30T01:57:34.424Z,6.93
2022-10-30T02:00:06.117Z,7.10
2022-10-30T02:27:51.928Z,7.20
2022-10-30T02:30:21.414Z,6.50
2022-10-30T02:32:49.979Z,7.33
2022-10-30T02:35:18.126Z,7.07
2022-10-30T02:37:48.979Z,7.17
2022-10-30T02:40:17.264Z,8.13
2022-10-30T02:42:45.317Z,7.53
2022-10-30T02:45:13.417Z,6.83
2022-10-30T02:47:42.830Z,7.93
2022-10-30T02:50:11.463Z,7.87
2022-10-30T02:52:39.483Z,6.93
2022-10-30T02:55:07.907Z,7.93
2022-10-30T02:57:35.949Z,7.47
2022-10-30T03:00:04.610Z,7.83
2022-10-30T03:07:56.266Z,7.50
2022-10-30T03:10:24.633Z,8.07
2022-10-30T03:12:52.689Z,7.03
2022-10-30T03:15:21.109Z,7.23
2022-10-30T03:17:52.384Z,8.33
2022-10-30T03:20:20.511Z,6.83
2022-10-30T03:22:48.532Z,8.17
2022-10-30T03:25:23.760Z,7.57
2022-10-30T03:27:53.496Z,7.90
2022-10-30T03:30:21.500Z,7.77
2022-10-30T03:32:49.534Z,7.67
2022-10-30T03:35:17.754Z,7.67
2022-10-30T03:37:45.807Z,7.13
2022-10-30T03:40:14.003Z,7.97
2022-10-30T03:42:43.467Z,7.50
2022-10-30T03:45:11.985Z,8.57
2022-10-30T03:47:41.189Z,8.30
2022-10-30T03:50:09.834Z,7.63
2022-10-30T03:52:37.846Z,7.93
2022-10-30T03:55:06.724Z,7.57
2022-10-30T03:57:37.997Z,7.90
2022-10-30T04:00:09.071Z,7.60
2022-10-30T04:02:37.101Z,7.87
2022-10-30T04:05:05.577Z,7.97
2022-10-30T04:07:33.578Z,7.40
2022-10-30T04:10:01.638Z,7.40
2022-10-30T04:12:29.673Z,7.87
2022-10-30T04:14:57.986Z,8.13
2022-10-30T04:17:27.406Z,7.80
2022-10-30T04:19:55.483Z,8.30
2022-10-30T04:22:23.529Z,6.87
2022-10-30T04:24:51.682Z,7.13
2022-10-30T04:27:20.404Z,7.60
2022-10-30T04:29:48.602Z,7.30
2022-10-30T04:32:16.626Z,7.20
2022-10-30T04:34:46.045Z,8.13
2022-10-30T04:37:14.137Z,8.03
2022-10-30T04:39:46.377Z,7.90
2022-10-30T04:42:14.597Z,7.00
2022-10-30T04:44:42.623Z,7.13
2022-10-30T04:47:10.716Z,7.23
2022-10-30T04:49:38.731Z,7.87
2022-10-30T04:52:08.145Z,8.23
2022-10-30T04:54:36.150Z,7.67
2022-10-30T04:57:04.491Z,8.47
2022-10-30T04:59:32.497Z,7.63
2022-10-30T05:02:00.594Z,7.97
2022-10-30T05:04:28.796Z,7.50
2022-10-30T05:06:56.966Z,8.10
2022-10-30T05:09:26.402Z,7.60
2022-10-30T05:11:58.998Z,7.90
2022-10-30T05:14:30.690Z,8.07
2022-10-30T05:16:59.159Z,7.57
2022-10-30T05:19:27.780Z,7.23
2022-10-30T05:21:56.546Z,7.83
2022-10-30T05:24:25.996Z,7.70
2022-10-30T05:26:54.005Z,7.30
2022-10-30T05:29:21.992Z,8.43
2022-10-30T05:31:50.042Z,7.17
2022-10-30T05:34:18.134Z,7.80
2022-10-30T05:36:46.174Z,6.97
2022-10-30T05:39:14.232Z,7.87
2022-10-30T05:41:43.621Z,7.03
2022-10-30T05:44:11.708Z,7.43
2022-10-30T05:46:39.753Z,7.37
2022-10-30T05:49:07.994Z,7.40
2022-10-30T05:51:38.120Z,7.73
2022-10-30T05:54:08.571Z,8.33
2022-10-30T05:56:36.624Z,8.20
2022-10-30T05:59:06.107Z,8.77
2022-10-30T06:01:34.207Z,7.43
2022-10-30T06:04:02.343Z,8.10
2022-10-30T06:06:30.434Z,8.17
2022-10-30T06:08:58.623Z,7.80
2022-10-30T06:11:26.638Z,7.43
2022-10-30T06:13:54.718Z,8.23
2022-10-30T06:16:24.272Z,8.37
2022-10-30T06:18:52.383Z,8.40
2022-10-30T06:21:20.398Z,7.47
2022-10-30T06:23:49.924Z,8.47
2022-10-30T06:26:18.016Z,8.33
2022-10-30T06:28:46.072Z,8.60
2022-10-30T06:31:14.186Z,8.60
2022-10-30T06:33:43.607Z,8.67
2022-10-30T06:36:11.617Z,7.90
2022-10-30T06:38:39.720Z,9.40
2022-10-30T06:41:07.701Z,9.07
2022-10-30T06:43:35.948Z,8.57
2022-10-30T06:46:04.071Z,9.27
2022-10-30T06:48:32.180Z,8.63
2022-10-30T06:51:03.318Z,8.80
2022-10-30T06:53:31.361Z,8.90
2022-10-30T06:56:00.713Z,8.80
2022-10-30T06:58:29.327Z,8.43
2022-10-30T07:01:00.568Z,7.77
2022-10-30T07:03:28.592Z,8.50
2022-10-30T07:05:56.678Z,8.03
2022-10-30T07:08:26.232Z,8.17
2022-10-30T07:10:54.305Z,7.80
2022-10-30T07:13:22.338Z,8.67
2022-10-30T07:15:50.352Z,7.60
2022-10-30T07:18:18.425Z,7.80
2022-10-30T07:20:46.428Z,7.40
2022-10-30T07:23:14.507Z,7.83
2022-10-30T07:25:43.921Z,7.43
2022-10-30T07:28:12.004Z,7.03
2022-10-30T07:30:40.116Z,7.50
2022-10-30T07:33:10.290Z,7.67
2022-10-30T07:35:38.474Z,6.50
2022-10-30T07:38:08.360Z,6.70
2022-10-30T07:40:36.545Z,6.77
2022-10-30T07:43:06.612Z,7.40
2022-10-30T07:45:34.963Z,5.88
2022-10-30T07:48:03.508Z,6.30
2022-10-30T07:50:31.792Z,7.13
2022-10-30T07:52:59.766Z,6.50
2022-10-30T07:55:27.822Z,6.40
2022-10-30T07:57:56.188Z,6.50
2022-10-30T08:00:25.898Z,5.70
2022-10-30T08:02:57.985Z,6.78
2022-10-30T08:05:28.885Z,6.47
2022-10-30T08:07:58.663Z,6.60
2022-10-30T08:10:27.299Z,7.10
2022-10-30T08:12:55.458Z,6.07
2022-10-30T08:15:24.962Z,6.03
2022-10-30T08:17:53.501Z,6.65
2022-10-30T08:20:24.108Z,6.75
2022-10-30T08:22:53.397Z,6.55
2022-10-30T08:25:23.224Z,6.43
2022-10-30T08:27:53.423Z,7.30
2022-10-30T08:30:21.558Z,7.32
2022-10-30T08:32:50.958Z,6.95
2022-10-30T08:35:20.230Z,6.85
2022-10-30T08:37:48.729Z,7.45
2022-10-30T08:40:16.921Z,6.72
2022-10-30T08:42:51.689Z,6.88
2022-10-30T08:45:20.337Z,6.50
2022-10-30T08:47:57.269Z,7.00
2022-10-30T08:50:25.699Z,6.55
2022-10-30T08:52:54.749Z,6.43
2022-10-30T08:55:23.291Z,7.00
2022-10-30T08:57:51.349Z,7.05
2022-10-30T09:00:19.668Z,6.18
2022-10-30T09:02:47.794Z,6.80
2022-10-30T09:05:21.436Z,6.15
2022-10-30T09:07:49.632Z,6.35
2022-10-30T09:10:17.851Z,6.93
2022-10-30T09:12:45.906Z,6.35
2022-10-30T09:15:13.966Z,6.38
2022-10-30T09:17:42.033Z,6.85
2022-10-30T09:20:11.167Z,7.28
2022-10-30T09:22:43.337Z,7.57
2022-10-30T09:25:11.480Z,7.82
2022-10-30T09:27:39.800Z,7.93
2022-10-30T09:30:09.147Z,7.38
2022-10-30T09:32:37.200Z,7.30
2022-10-30T09:35:05.819Z,8.38
2022-10-30T09:37:35.689Z,7.28
2022-10-30T09:40:05.566Z,7.93
2022-10-30T09:42:42.903Z,7.50
2022-10-30T09:45:43.978Z,7.97
2022-10-30T09:48:35.707Z,9.20
2022-10-30T09:51:14.768Z,9.45
2022-10-30T09:53:51.437Z,8.30
2022-10-30T09:56:28.314Z,8.00
2022-10-30T09:59:09.313Z,7.97
2022-10-30T10:09:21.850Z,8.55
2022-10-30T10:11:56.990Z,7.75
2022-10-30T10:14:29.653Z,8.10
2022-10-30T10:16:58.707Z,7.97
2022-10-30T10:19:33.661Z,8.13
2022-10-30T10:22:03.445Z,7.03
2022-10-30T10:24:34.198Z,7.03
2022-10-30T10:27:18.212Z,6.72
2022-10-30T10:29:58.547Z,7.30
2022-10-30T10:32:46.794Z,8.00
2022-10-30T10:35:40.874Z,7.80
2022-10-30T10:38:17.767Z,7.75
2022-10-30T10:40:56.265Z,8.60
2022-10-30T10:43:38.978Z,7.50
2022-10-30T10:46:29.193Z,7.38
2022-10-30T10:49:14.532Z,7.95
2022-10-30T10:51:46.763Z,8.27
2022-10-30T10:54:19.526Z,8.43
2022-10-30T10:56:51.044Z,8.63
2022-10-30T10:59:23.585Z,7.78
2022-10-30T11:01:57.420Z,8.70
2022-10-30T11:04:32.978Z,8.02
2022-10-30T11:07:21.740Z,8.63
2022-10-30T11:09:54.111Z,8.48
2022-10-30T11:12:28.561Z,8.63
2022-10-30T11:15:24.527Z,8.30
2022-10-30T11:17:59.818Z,8.88
2022-10-30T11:20:33.053Z,9.32
2022-10-30T11:23:01.442Z,9.07
2022-10-30T11:25:36.900Z,8.20
2022-10-30T11:28:06.348Z,8.52
2022-10-30T11:30:35.726Z,8.13
2022-10-30T11:33:23.948Z,7.78
2022-10-30T11:35:52.043Z,8.27
2022-10-30T11:38:21.337Z,8.80
2022-10-30T11:40:53.164Z,9.75
2022-10-30T11:43:25.568Z,8.30
2022-10-30T11:45:55.768Z,8.40
2022-10-30T11:48:31.677Z,8.55
2022-10-30T11:51:01.463Z,8.48
2022-10-30T11:53:34.904Z,7.57
2022-10-30T11:56:04.823Z,9.07
2022-10-30T11:58:35.982Z,8.50
2022-10-30T12:01:09.007Z,8.23
2022-10-30T12:03:39.561Z,8.60
2022-10-30T12:06:12.151Z,8.63
2022-10-30T12:08:40.228Z,9.25
2022-10-30T12:11:08.422Z,9.30
2022-10-30T12:13:40.793Z,8.75
2022-10-30T12:16:17.372Z,9.23
2022-10-30T12:19:00.600Z,8.70
2022-10-30T12:21:31.064Z,8.95
2022-10-30T12:24:06.690Z,9.20
2022-10-30T12:26:36.201Z,10.00
2022-10-30T12:29:07.545Z,9.70
2022-10-30T12:31:47.048Z,10.27
2022-10-30T12:34:29.518Z,9.65
2022-10-30T12:37:04.846Z,9.60
2022-10-30T12:39:43.593Z,10.02
2022-10-30T12:42:16.343Z,9.10
2022-10-30T12:44:47.908Z,9.55
2022-10-30T12:47:25.965Z,9.57
2022-10-30T12:49:59.281Z,8.77
2022-10-30T12:52:32.941Z,9.93
2022-10-30T12:55:06.398Z,9.02
2022-10-30T12:57:38.210Z,9.05
2022-10-30T13:00:14.357Z,9.18
2022-10-30T13:02:57.924Z,9.07
2022-10-30T13:05:35.174Z,9.25
2022-10-30T13:08:14.271Z,8.85
2022-10-30T13:10:47.233Z,9.68
2022-10-30T13:13:20.287Z,9.15
2022-10-30T13:15:51.589Z,8.57
2022-10-30T13:18:22.640Z,8.93
2022-10-30T13:21:05.111Z,8.95
2022-10-30T13:23:41.664Z,8.70
2022-10-30T13:26:20.028Z,9.50
2022-10-30T13:28:56.007Z,9.70
2022-10-30T13:31:32.545Z,9.55
2022-10-30T13:34:10.110Z,9.38
2022-10-30T13:36:46.910Z,8.48
2022-10-30T13:39:26.288Z,9.20
2022-10-30T13:42:17.232Z,8.52
2022-10-30T13:44:55.488Z,8.15
2022-10-30T13:47:36.767Z,7.93
2022-10-30T13:50:23.976Z,8.07
2022-10-30T13:52:57.971Z,8.68
2022-10-30T13:55:29.603Z,9.05
2022-10-30T13:58:05.822Z,8.00
2022-10-30T14:00:52.083Z,9.18
2022-10-30T14:03:43.783Z,9.05
2022-10-30T14:06:20.205Z,9.23
2022-10-30T14:08:55.251Z,8.18
2022-10-30T14:11:23.357Z,7.72
2022-10-30T14:13:56.333Z,7.65
2022-10-30T14:16:41.974Z,7.30
2022-10-30T14:19:11.115Z,9.23
2022-10-30T14:21:54.307Z,9.13
2022-10-30T14:27:11.889Z,9.35
2022-10-30T14:29:48.389Z,8.95
2022-10-30T14:32:48.982Z,9.32
2022-10-30T14:35:33.803Z,8.20
2022-10-30T14:38:28.507Z,8.10
2022-10-30T14:41:12.853Z,8.15
2022-10-30T14:43:49.386Z,8.65
2022-10-30T14:46:25.901Z,8.80
2022-10-30T14:49:02.389Z,9.82
2022-10-30T14:51:36.421Z,10.23
2022-10-30T14:54:18.149Z,8.93
2022-10-30T14:56:48.373Z,9.57
2022-10-30T14:59:31.415Z,10.15
2022-10-30T15:02:21.405Z,9.43
2022-10-30T15:05:09.618Z,10.00
2022-10-30T15:07:44.524Z,9.98
2022-10-30T15:10:20.893Z,10.13
2022-10-30T15:13:07.006Z,10.30
2022-10-30T15:15:35.760Z,8.32
2022-10-30T15:18:10.252Z,8.85
2022-10-30T15:20:40.182Z,10.18
2022-10-30T15:23:13.100Z,8.93
2022-10-30T15:25:48.536Z,9.30
2022-10-30T15:28:19.915Z,9.18
2022-10-30T15:31:01.830Z,8.38
2022-10-30T15:33:32.537Z,8.82
2022-10-30T15:36:00.696Z,10.20
2022-10-30T15:38:28.801Z,9.18
2022-10-30T15:41:01.000Z,8.85
2022-10-30T15:43:32.265Z,9.00
2022-10-30T15:46:00.609Z,8.60
2022-10-30T15:48:31.882Z,7.80
2022-10-30T15:51:02.323Z,7.70
2022-10-30T15:53:37.612Z,6.78
2022-10-30T15:56:17.288Z,8.40
2022-10-30T15:58:51.352Z,7.82
2022-10-30T16:01:26.803Z,7.20
2022-10-30T16:03:55.388Z,8.23
2022-10-30T16:06:27.170Z,7.32
2022-10-30T16:08:55.405Z,6.38
2022-10-30T16:11:25.688Z,6.60
2022-10-30T16:13:54.516Z,6.60
2022-10-30T16:16:27.242Z,5.82
2022-10-30T16:18:59.241Z,7.20
2022-10-30T16:21:30.872Z,6.30
2022-10-30T16:24:01.679Z,6.15
2022-10-30T16:26:33.749Z,7.30
2022-10-30T16:29:08.710Z,6.70
2022-10-30T16:31:38.092Z,5.68
2022-10-30T16:34:10.668Z,6.25
2022-10-30T16:36:39.190Z,5.90
2022-10-30T16:39:07.401Z,5.78
2022-10-30T16:41:37.318Z,5.72
2022-10-30T16:44:27.173Z,7.20
2022-10-30T16:46:57.076Z,6.55
2022-10-30T16:49:27.991Z,6.50
2022-10-30T16:51:59.762Z,7.88
2022-10-30T17:06:01.025Z,8.93
2022-10-30T17:08:40.497Z,7.50
2022-10-30T17:11:18.592Z,7.18
2022-10-30T17:14:01.917Z,7.60
2022-10-30T17:16:32.419Z,8.43
2022-10-30T17:19:02.434Z,7.72
2022-10-30T17:21:39.451Z,7.47
2022-10-30T17:24:19.473Z,8.43
2022-10-30T17:26:55.931Z,7.78
2022-10-30T17:29:45.913Z,7.47
2022-10-30T17:32:20.836Z,8.27
2022-10-30T17:34:49.989Z,6.57
2022-10-30T17:37:19.372Z,6.63
2022-10-30T17:39:47.407Z,6.95
2022-10-30T17:42:15.609Z,7.07
2022-10-30T17:44:43.867Z,6.40
2022-10-30T17:47:17.005Z,6.82
2022-10-30T17:49:45.968Z,6.57
2022-10-30T17:52:15.112Z,6.35
2022-10-30T17:54:45.462Z,6.63
2022-10-30T17:57:14.836Z,6.55
2022-10-30T17:59:43.708Z,7.33
2022-10-30T18:02:15.115Z,6.70
2022-10-30T18:04:43.491Z,6.63
2022-10-30T18:07:11.686Z,6.30
2022-10-30T18:09:40.175Z,7.37
2022-10-30T18:12:13.892Z,6.95
2022-10-30T18:14:43.240Z,7.03
2022-10-30T18:17:11.741Z,6.97
2022-10-30T18:19:40.076Z,7.57
2022-10-30T18:22:08.156Z,7.13
2022-10-30T18:24:36.231Z,6.47
2022-10-30T18:27:04.467Z,7.00
2022-10-30T18:29:33.963Z,6.70
2022-10-30T18:32:06.872Z,9.10
2022-10-30T18:34:37.710Z,7.30
2022-10-30T18:37:05.885Z,6.47
2022-10-30T18:39:34.004Z,7.32
2022-10-30T18:42:02.231Z,7.27
2022-10-30T18:44:30.307Z,7.30
2022-10-30T18:47:02.953Z,6.03
2022-10-30T18:49:34.865Z,6.60
2022-10-30T18:52:02.888Z,7.17
2022-10-30T18:54:30.964Z,6.40
2022-10-30T18:56:59.010Z,6.47
2022-10-30T18:59:27.107Z,5.90
2022-10-30T19:01:55.539Z,6.23
2022-10-30T19:04:25.093Z,6.73
2022-10-30T19:06:53.131Z,6.80
2022-10-30T19:09:21.202Z,6.00
2022-10-30T19:11:49.270Z,7.07
2022-10-30T19:14:17.371Z,6.40
2022-10-30T19:16:45.393Z,5.60
2022-10-30T19:19:15.035Z,7.33
2022-10-30T19:21:46.805Z,6.13
2022-10-30T19:24:17.820Z,5.80
2022-10-30T19:26:45.928Z,6.03
2022-10-30T19:29:13.997Z,5.53
2022-10-30T19:31:42.122Z,6.07
2022-10-30T19:34:10.235Z,6.20
2022-10-30T19:36:39.198Z,6.13
2022-10-30T19:39:14.409Z,5.20
2022-10-30T19:41:42.568Z,5.80
2022-10-30T19:44:10.742Z,5.63
2022-10-30T19:46:39.088Z,5.27
2022-10-30T19:49:17.347Z,5.60
2022-10-30T19:51:45.362Z,5.47
2022-10-30T19:54:14.809Z,5.17
2022-10-30T19:56:44.054Z,4.83
2022-10-30T19:59:14.327Z,4.97
2022-10-30T20:01:43.846Z,6.47
2022-10-30T20:04:12.085Z,5.40
2022-10-30T20:06:40.295Z,5.53
2022-10-30T20:09:11.104Z,5.67
2022-10-30T20:11:40.557Z,5.63
2022-10-30T20:14:08.648Z,5.60
2022-10-30T20:16:36.661Z,5.83
2022-10-30T20:19:28.466Z,5.03
2022-10-30T20:21:56.640Z,5.23
2022-10-30T20:24:24.830Z,5.33
2022-10-30T20:26:56.624Z,5.33
2022-10-30T20:29:25.446Z,5.13
2022-10-30T20:31:53.501Z,5.67
2022-10-30T20:34:21.571Z,5.47
2022-10-30T20:36:49.958Z,5.73
2022-10-30T20:39:18.070Z,5.17
2022-10-30T20:41:46.132Z,6.17
2022-10-30T20:44:15.548Z,5.40
2022-10-30T20:46:43.765Z,6.30
2022-10-30T20:49:17.729Z,5.63
2022-10-30T20:51:46.599Z,6.10
2022-10-30T20:54:14.642Z,5.27
2022-10-30T20:56:42.671Z,5.27
2022-10-30T20:59:10.734Z,6.07
2022-10-30T21:01:40.324Z,5.37
2022-10-30T21:04:08.458Z,5.60
2022-10-30T21:06:36.510Z,6.20
2022-10-30T21:09:04.741Z,5.50
2022-10-30T21:11:32.866Z,6.20
2022-10-30T21:14:00.897Z,6.17
2022-10-30T21:16:28.994Z,6.33
2022-10-30T21:18:58.600Z,6.03
2022-10-30T21:21:26.637Z,6.27
2022-10-30T21:23:55.648Z,6.27
2022-10-30T21:26:24.809Z,6.07
2022-10-30T21:28:53.231Z,6.10
2022-10-30T21:31:21.358Z,5.43
2022-10-30T21:33:49.495Z,5.70
2022-10-30T21:36:20.895Z,5.67
2022-10-30T21:38:49.236Z,6.43
2022-10-30T21:41:19.106Z,6.00
2022-10-30T21:43:51.122Z,5.77
2022-10-30T21:46:19.386Z,6.17
2022-10-30T21:48:47.593Z,6.10
2022-10-30T21:51:18.905Z,6.60
2022-10-30T21:53:59.044Z,6.97
2022-10-30T21:56:29.357Z,5.93
2022-10-30T21:58:59.356Z,6.70
2022-10-30T22:01:29.585Z,5.70
2022-10-30T22:04:00.645Z,6.00
2022-10-30T22:06:30.861Z,6.37
2022-10-30T22:08:59.528Z,7.20
2022-10-30T22:11:29.611Z,6.73
2022-10-30T22:13:59.382Z,6.90
2022-10-30T22:16:28.381Z,7.57
2022-10-30T22:18:56.554Z,6.60
2022-10-30T22:21:25.076Z,7.43
2022-10-30T22:23:54.504Z,6.40
2022-10-30T22:26:23.956Z,6.10
2022-10-30T22:28:54.746Z,6.60
2022-10-30T22:31:24.499Z,6.87
2022-10-30T22:33:53.126Z,7.13
2022-10-30T22:36:22.727Z,7.17
2022-10-30T22:38:58.102Z,6.87
2022-10-30T22:41:27.119Z,7.77
2022-10-30T22:43:57.548Z,8.03
2022-10-30T22:46:27.988Z,6.70
2022-10-30T22:48:56.337Z,8.17
2022-10-30T22:51:25.458Z,7.20
2022-10-30T22:53:59.028Z,6.47
2022-10-30T22:56:28.830Z,7.17
2022-10-30T22:58:57.526Z,7.50
2022-10-30T23:01:27.924Z,7.13
2022-10-30T23:03:58.156Z,6.87
2022-10-30T23:06:27.167Z,7.47
2022-10-30T23:08:58.906Z,7.33
2022-10-30T23:11:30.024Z,5.67
2022-10-30T23:13:58.359Z,6.40
2022-10-30T23:16:27.656Z,6.87
2022-10-30T23:18:57.577Z,6.23
2022-10-30T23:21:27.667Z,6.63
2022-10-30T23:23:57.585Z,6.53
2022-10-30T23:26:27.414Z,6.67
2022-10-30T23:28:56.833Z,7.43
2022-10-30T23:31:27.397Z,7.00
2022-10-30T23:33:57.463Z,6.60
2022-10-30T23:36:25.690Z,6.90
2022-10-30T23:38:54.446Z,7.37
2022-10-30T23:41:25.767Z,7.27
2022-10-30T23:43:55.279Z,7.40
2022-10-30T23:46:23.722Z,7.30
2022-10-30T23:48:51.924Z,8.40
2022-10-30T23:51:20.356Z,8.60
2022-10-30T23:53:48.590Z,7.37
2022-10-30T23:56:16.815Z,7.07
2022-10-30T23:58:47.280Z,8.40
